sensor_id;sensor_type;location;lat;lon;timestamp;temperature;humidity
12688;DHT22;6408;59.388;17.798;2024-03-22T00:01:50;3.10;99.90
12688;DHT22;6408;59.388;17.798;2024-03-22T00:04:16;3.10;99.90
12688;DHT22;6408;59.388;17.798;2024-03-22T00:06:46;3.10;99.90
12688;DHT22;6408;59.388;17.798;2024-03-22T00:09:13;3.10;99.90
12688;DHT22;6408;59.388;17.798;2024-03-22T00:11:41;3.20;99.90
12688;DHT22;6408;59.388;17.798;2024-03-22T00:14:08;3.20;99.90
12688;DHT22;6408;59.388;17.798;2024-03-22T00:16:36;3.20;99.90
12688;DHT22;6408;59.388;17.798;2024-03-22T00:19:02;3.20;99.90
12688;DHT22;6408;59.388;17.798;2024-03-22T00:21:30;3.20;99.90
12688;DHT22;6408;59.388;17.798;2024-03-22T00:23:56;3.20;99.90
12688;DHT22;6408;59.388;17.798;2024-03-22T00:26:25;3.20;99.90
12688;DHT22;6408;59.388;17.798;2024-03-22T00:28:51;3.20;99.90
12688;DHT22;6408;59.388;17.798;2024-03-22T00:31:18;3.20;99.90
12688;DHT22;6408;59.388;17.798;2024-03-22T00:33:44;3.20;99.90
12688;DHT22;6408;59.388;17.798;2024-03-22T00:36:12;3.30;99.90
12688;DHT22;6408;59.388;17.798;2024-03-22T00:38:38;3.40;99.90
12688;DHT22;6408;59.388;17.798;2024-03-22T00:41:05;3.40;99.90
12688;DHT22;6408;59.388;17.798;2024-03-22T00:43:34;3.30;99.90
12688;DHT22;6408;59.388;17.798;2024-03-22T00:46:03;3.30;99.90
12688;DHT22;6408;59.388;17.798;2024-03-22T00:48:29;3.30;99.90
12688;DHT22;6408;59.388;17.798;2024-03-22T00:50:56;3.40;99.90
12688;DHT22;6408;59.388;17.798;2024-03-22T00:53:22;3.30;99.90
12688;DHT22;6408;59.388;17.798;2024-03-22T00:55:50;3.30;99.90
12688;DHT22;6408;59.388;17.798;2024-03-22T00:58:17;3.30;99.90
12688;DHT22;6408;59.388;17.798;2024-03-22T01:00:46;3.30;99.90
12688;DHT22;6408;59.388;17.798;2024-03-22T01:03:12;3.20;99.90
12688;DHT22;6408;59.388;17.798;2024-03-22T01:05:40;3.20;99.90
12688;DHT22;6408;59.388;17.798;2024-03-22T01:08:07;3.20;99.90
12688;DHT22;6408;59.388;17.798;2024-03-22T01:10:34;3.20;99.90
12688;DHT22;6408;59.388;17.798;2024-03-22T01:13:01;3.20;99.90
12688;DHT22;6408;59.388;17.798;2024-03-22T01:15:28;3.20;99.90
12688;DHT22;6408;59.388;17.798;2024-03-22T01:17:55;3.20;99.90
12688;DHT22;6408;59.388;17.798;2024-03-22T01:20:22;3.20;99.90
12688;DHT22;6408;59.388;17.798;2024-03-22T01:22:49;3.20;99.90
12688;DHT22;6408;59.388;17.798;2024-03-22T01:25:16;3.20;99.90
12688;DHT22;6408;59.388;17.798;2024-03-22T01:27:42;3.10;99.90
12688;DHT22;6408;59.388;17.798;2024-03-22T01:30:10;3.10;99.90
12688;DHT22;6408;59.388;17.798;2024-03-22T01:32:37;3.10;99.90
12688;DHT22;6408;59.388;17.798;2024-03-22T01:35:07;3.10;99.90
12688;DHT22;6408;59.388;17.798;2024-03-22T01:37:33;3.10;99.90
12688;DHT22;6408;59.388;17.798;2024-03-22T01:40:03;3.10;99.90
12688;DHT22;6408;59.388;17.798;2024-03-22T01:42:30;3.10;99.90
12688;DHT22;6408;59.388;17.798;2024-03-22T01:44:57;3.10;99.90
12688;DHT22;6408;59.388;17.798;2024-03-22T01:47:23;3.10;99.90
12688;DHT22;6408;59.388;17.798;2024-03-22T01:49:53;3.10;99.90
12688;DHT22;6408;59.388;17.798;2024-03-22T01:52:21;3.10;99.90
12688;DHT22;6408;59.388;17.798;2024-03-22T01:54:49;3.10;99.90
12688;DHT22;6408;59.388;17.798;2024-03-22T01:57:15;3.10;99.90
12688;DHT22;6408;59.388;17.798;2024-03-22T01:59:43;3.10;99.90
12688;DHT22;6408;59.388;17.798;2024-03-22T02:02:09;3.10;99.90
12688;DHT22;6408;59.388;17.798;2024-03-22T02:04:37;3.10;99.90
12688;DHT22;6408;59.388;17.798;2024-03-22T02:07:03;3.10;99.90
12688;DHT22;6408;59.388;17.798;2024-03-22T02:09:33;3.10;99.90
12688;DHT22;6408;59.388;17.798;2024-03-22T02:11:59;3.10;99.90
12688;DHT22;6408;59.388;17.798;2024-03-22T02:14:27;3.10;99.90
12688;DHT22;6408;59.388;17.798;2024-03-22T02:16:53;3.10;99.90
12688;DHT22;6408;59.388;17.798;2024-03-22T02:19:21;3.10;99.90
12688;DHT22;6408;59.388;17.798;2024-03-22T02:21:46;3.10;99.90
12688;DHT22;6408;59.388;17.798;2024-03-22T02:24:16;3.00;99.90
12688;DHT22;6408;59.388;17.798;2024-03-22T02:26:42;3.10;99.90
12688;DHT22;6408;59.388;17.798;2024-03-22T02:29:09;3.00;99.90
12688;DHT22;6408;59.388;17.798;2024-03-22T02:31:35;3.00;99.90
12688;DHT22;6408;59.388;17.798;2024-03-22T02:34:02;3.10;99.90
12688;DHT22;6408;59.388;17.798;2024-03-22T02:36:28;3.10;99.90
12688;DHT22;6408;59.388;17.798;2024-03-22T02:38:55;3.00;99.90
12688;DHT22;6408;59.388;17.798;2024-03-22T02:41:23;3.00;99.90
12688;DHT22;6408;59.388;17.798;2024-03-22T02:43:50;3.00;99.90
12688;DHT22;6408;59.388;17.798;2024-03-22T02:46:16;3.00;99.90
12688;DHT22;6408;59.388;17.798;2024-03-22T02:48:43;3.00;99.90
12688;DHT22;6408;59.388;17.798;2024-03-22T02:51:09;3.00;99.90
12688;DHT22;6408;59.388;17.798;2024-03-22T02:53:36;3.00;99.90
12688;DHT22;6408;59.388;17.798;2024-03-22T02:56:03;3.00;99.90
12688;DHT22;6408;59.388;17.798;2024-03-22T02:58:31;3.00;99.90
12688;DHT22;6408;59.388;17.798;2024-03-22T03:00:58;3.00;99.90
12688;DHT22;6408;59.388;17.798;2024-03-22T03:03:26;3.00;99.90
12688;DHT22;6408;59.388;17.798;2024-03-22T03:05:52;3.10;99.90
12688;DHT22;6408;59.388;17.798;2024-03-22T03:08:19;3.00;99.90
12688;DHT22;6408;59.388;17.798;2024-03-22T03:10:46;3.00;99.90
12688;DHT22;6408;59.388;17.798;2024-03-22T03:13:13;3.10;99.90
12688;DHT22;6408;59.388;17.798;2024-03-22T03:15:40;3.10;99.90
12688;DHT22;6408;59.388;17.798;2024-03-22T03:18:07;3.10;99.90
12688;DHT22;6408;59.388;17.798;2024-03-22T03:20:33;3.00;99.90
12688;DHT22;6408;59.388;17.798;2024-03-22T03:23:00;3.00;99.90
12688;DHT22;6408;59.388;17.798;2024-03-22T03:25:27;3.00;99.90
12688;DHT22;6408;59.388;17.798;2024-03-22T03:27:54;3.00;99.90
12688;DHT22;6408;59.388;17.798;2024-03-22T03:30:21;3.00;99.90
12688;DHT22;6408;59.388;17.798;2024-03-22T03:32:52;3.00;99.90
12688;DHT22;6408;59.388;17.798;2024-03-22T03:35:18;3.00;99.90
12688;DHT22;6408;59.388;17.798;2024-03-22T03:37:45;3.00;99.90
12688;DHT22;6408;59.388;17.798;2024-03-22T03:40:11;3.00;99.90
12688;DHT22;6408;59.388;17.798;2024-03-22T03:42:39;3.00;99.90
12688;DHT22;6408;59.388;17.798;2024-03-22T03:45:05;3.00;99.90
12688;DHT22;6408;59.388;17.798;2024-03-22T03:47:33;3.00;99.90
12688;DHT22;6408;59.388;17.798;2024-03-22T03:50:02;3.00;99.90
12688;DHT22;6408;59.388;17.798;2024-03-22T03:52:29;3.00;99.90
12688;DHT22;6408;59.388;17.798;2024-03-22T03:54:56;3.00;99.90
12688;DHT22;6408;59.388;17.798;2024-03-22T03:57:23;3.00;99.90
12688;DHT22;6408;59.388;17.798;2024-03-22T03:59:49;3.00;99.90
12688;DHT22;6408;59.388;17.798;2024-03-22T04:02:16;3.00;99.90
12688;DHT22;6408;59.388;17.798;2024-03-22T04:04:42;3.00;99.90
12688;DHT22;6408;59.388;17.798;2024-03-22T04:07:13;3.00;99.90
12688;DHT22;6408;59.388;17.798;2024-03-22T04:09:39;3.00;99.90
12688;DHT22;6408;59.388;17.798;2024-03-22T04:12:06;3.00;99.90
12688;DHT22;6408;59.388;17.798;2024-03-22T04:14:35;3.00;99.90
12688;DHT22;6408;59.388;17.798;2024-03-22T04:17:02;3.10;99.90
12688;DHT22;6408;59.388;17.798;2024-03-22T04:19:28;3.10;99.90
12688;DHT22;6408;59.388;17.798;2024-03-22T04:21:55;3.10;99.90
12688;DHT22;6408;59.388;17.798;2024-03-22T04:24:24;3.10;99.90
12688;DHT22;6408;59.388;17.798;2024-03-22T04:26:52;3.10;99.90
12688;DHT22;6408;59.388;17.798;2024-03-22T04:29:18;3.10;99.90
12688;DHT22;6408;59.388;17.798;2024-03-22T04:31:45;3.10;99.90
12688;DHT22;6408;59.388;17.798;2024-03-22T04:34:11;3.10;99.90
12688;DHT22;6408;59.388;17.798;2024-03-22T04:36:38;3.10;99.90
12688;DHT22;6408;59.388;17.798;2024-03-22T04:39:04;3.10;99.90
12688;DHT22;6408;59.388;17.798;2024-03-22T04:41:34;3.10;99.90
12688;DHT22;6408;59.388;17.798;2024-03-22T04:44:01;3.10;99.90
12688;DHT22;6408;59.388;17.798;2024-03-22T04:46:28;3.20;99.90
12688;DHT22;6408;59.388;17.798;2024-03-22T04:48:54;3.10;99.90
12688;DHT22;6408;59.388;17.798;2024-03-22T04:51:21;3.10;99.90
12688;DHT22;6408;59.388;17.798;2024-03-22T04:53:47;3.20;99.90
12688;DHT22;6408;59.388;17.798;2024-03-22T04:56:15;3.20;99.90
12688;DHT22;6408;59.388;17.798;2024-03-22T04:58:43;3.10;99.90
12688;DHT22;6408;59.388;17.798;2024-03-22T05:01:10;3.10;99.90
12688;DHT22;6408;59.388;17.798;2024-03-22T05:03:38;3.10;99.90
12688;DHT22;6408;59.388;17.798;2024-03-22T05:06:08;3.10;99.90
12688;DHT22;6408;59.388;17.798;2024-03-22T05:08:34;3.20;99.90
12688;DHT22;6408;59.388;17.798;2024-03-22T05:11:01;3.20;99.90
12688;DHT22;6408;59.388;17.798;2024-03-22T05:13:29;3.20;99.90
12688;DHT22;6408;59.388;17.798;2024-03-22T05:15:58;3.20;99.90
12688;DHT22;6408;59.388;17.798;2024-03-22T05:18:24;3.20;99.90
12688;DHT22;6408;59.388;17.798;2024-03-22T05:20:52;3.20;99.90
12688;DHT22;6408;59.388;17.798;2024-03-22T05:23:20;3.20;99.90
12688;DHT22;6408;59.388;17.798;2024-03-22T05:25:48;3.20;99.90
12688;DHT22;6408;59.388;17.798;2024-03-22T05:28:14;3.20;99.90
12688;DHT22;6408;59.388;17.798;2024-03-22T05:30:41;3.20;99.90
12688;DHT22;6408;59.388;17.798;2024-03-22T05:33:09;3.20;99.90
12688;DHT22;6408;59.388;17.798;2024-03-22T05:35:37;3.20;99.90
12688;DHT22;6408;59.388;17.798;2024-03-22T05:38:04;3.20;99.90
12688;DHT22;6408;59.388;17.798;2024-03-22T05:40:31;3.20;99.90
12688;DHT22;6408;59.388;17.798;2024-03-22T05:42:57;3.30;99.90
12688;DHT22;6408;59.388;17.798;2024-03-22T05:45:24;3.30;99.90
12688;DHT22;6408;59.388;17.798;2024-03-22T05:47:50;3.30;99.90
12688;DHT22;6408;59.388;17.798;2024-03-22T05:50:19;3.30;99.90
12688;DHT22;6408;59.388;17.798;2024-03-22T05:52:47;3.30;99.90
12688;DHT22;6408;59.388;17.798;2024-03-22T05:55:14;3.30;99.90
12688;DHT22;6408;59.388;17.798;2024-03-22T05:57:41;3.40;99.90
12688;DHT22;6408;59.388;17.798;2024-03-22T06:00:08;3.40;99.90
12688;DHT22;6408;59.388;17.798;2024-03-22T06:02:35;3.50;99.90
12688;DHT22;6408;59.388;17.798;2024-03-22T06:05:04;3.50;99.90
12688;DHT22;6408;59.388;17.798;2024-03-22T06:07:32;3.50;99.90
12688;DHT22;6408;59.388;17.798;2024-03-22T06:10:09;3.50;99.90
12688;DHT22;6408;59.388;17.798;2024-03-22T06:12:35;3.50;99.90
12688;DHT22;6408;59.388;17.798;2024-03-22T06:15:03;3.50;99.90
12688;DHT22;6408;59.388;17.798;2024-03-22T06:17:32;3.60;99.90
12688;DHT22;6408;59.388;17.798;2024-03-22T06:20:00;3.60;99.90
12688;DHT22;6408;59.388;17.798;2024-03-22T06:22:26;3.50;99.90
12688;DHT22;6408;59.388;17.798;2024-03-22T06:24:55;3.50;99.90
12688;DHT22;6408;59.388;17.798;2024-03-22T06:27:21;3.50;99.90
12688;DHT22;6408;59.388;17.798;2024-03-22T06:29:48;3.50;99.90
12688;DHT22;6408;59.388;17.798;2024-03-22T06:32:14;3.60;99.90
12688;DHT22;6408;59.388;17.798;2024-03-22T06:34:55;3.60;99.90
12688;DHT22;6408;59.388;17.798;2024-03-22T06:37:25;3.60;99.90
12688;DHT22;6408;59.388;17.798;2024-03-22T06:39:52;3.60;99.90
12688;DHT22;6408;59.388;17.798;2024-03-22T06:42:21;3.60;99.90
12688;DHT22;6408;59.388;17.798;2024-03-22T06:44:47;3.60;99.90
12688;DHT22;6408;59.388;17.798;2024-03-22T06:47:14;3.60;99.90
12688;DHT22;6408;59.388;17.798;2024-03-22T06:49:42;3.60;99.90
12688;DHT22;6408;59.388;17.798;2024-03-22T06:52:09;3.60;99.90
12688;DHT22;6408;59.388;17.798;2024-03-22T06:54:35;3.60;99.90
12688;DHT22;6408;59.388;17.798;2024-03-22T06:57:03;3.70;99.90
12688;DHT22;6408;59.388;17.798;2024-03-22T06:59:30;3.70;99.90
12688;DHT22;6408;59.388;17.798;2024-03-22T07:01:57;3.70;99.90
12688;DHT22;6408;59.388;17.798;2024-03-22T07:04:24;3.80;99.90
12688;DHT22;6408;59.388;17.798;2024-03-22T07:06:51;3.70;99.90
12688;DHT22;6408;59.388;17.798;2024-03-22T07:09:17;3.70;99.90
12688;DHT22;6408;59.388;17.798;2024-03-22T07:11:44;3.70;99.90
12688;DHT22;6408;59.388;17.798;2024-03-22T07:14:11;3.70;99.90
12688;DHT22;6408;59.388;17.798;2024-03-22T07:16:39;3.70;99.90
12688;DHT22;6408;59.388;17.798;2024-03-22T07:19:05;3.80;99.90
12688;DHT22;6408;59.388;17.798;2024-03-22T07:21:33;3.70;99.90
12688;DHT22;6408;59.388;17.798;2024-03-22T07:23:59;3.70;99.90
12688;DHT22;6408;59.388;17.798;2024-03-22T07:26:29;3.70;99.90
12688;DHT22;6408;59.388;17.798;2024-03-22T07:28:55;3.80;99.90
12688;DHT22;6408;59.388;17.798;2024-03-22T07:31:22;3.80;99.90
12688;DHT22;6408;59.388;17.798;2024-03-22T07:33:50;3.80;99.90
12688;DHT22;6408;59.388;17.798;2024-03-22T07:36:17;3.80;99.90
12688;DHT22;6408;59.388;17.798;2024-03-22T07:38:43;3.80;99.90
12688;DHT22;6408;59.388;17.798;2024-03-22T07:41:10;3.80;99.90
12688;DHT22;6408;59.388;17.798;2024-03-22T07:43:36;3.80;99.90
12688;DHT22;6408;59.388;17.798;2024-03-22T07:46:04;3.80;99.90
12688;DHT22;6408;59.388;17.798;2024-03-22T07:48:30;3.80;99.90
12688;DHT22;6408;59.388;17.798;2024-03-22T07:50:59;3.80;99.90
12688;DHT22;6408;59.388;17.798;2024-03-22T07:53:25;3.80;99.90
12688;DHT22;6408;59.388;17.798;2024-03-22T07:55:54;3.90;99.90
12688;DHT22;6408;59.388;17.798;2024-03-22T07:58:20;3.90;99.90
12688;DHT22;6408;59.388;17.798;2024-03-22T08:00:47;3.90;99.90
12688;DHT22;6408;59.388;17.798;2024-03-22T08:03:14;3.90;99.90
12688;DHT22;6408;59.388;17.798;2024-03-22T08:05:42;3.90;99.90
12688;DHT22;6408;59.388;17.798;2024-03-22T08:08:11;3.90;99.90
12688;DHT22;6408;59.388;17.798;2024-03-22T08:10:38;3.90;99.90
12688;DHT22;6408;59.388;17.798;2024-03-22T08:13:04;4.00;99.90
12688;DHT22;6408;59.388;17.798;2024-03-22T08:15:31;4.00;99.90
12688;DHT22;6408;59.388;17.798;2024-03-22T08:17:57;4.00;99.90
12688;DHT22;6408;59.388;17.798;2024-03-22T08:20:24;4.00;99.90
12688;DHT22;6408;59.388;17.798;2024-03-22T08:22:50;4.00;99.90
12688;DHT22;6408;59.388;17.798;2024-03-22T08:25:19;4.00;99.90
12688;DHT22;6408;59.388;17.798;2024-03-22T08:27:47;4.00;99.90
12688;DHT22;6408;59.388;17.798;2024-03-22T08:30:15;4.10;99.90
12688;DHT22;6408;59.388;17.798;2024-03-22T08:32:41;4.10;99.90
12688;DHT22;6408;59.388;17.798;2024-03-22T08:35:08;4.10;99.90
12688;DHT22;6408;59.388;17.798;2024-03-22T08:37:35;4.10;99.90
12688;DHT22;6408;59.388;17.798;2024-03-22T08:40:02;4.10;99.90
12688;DHT22;6408;59.388;17.798;2024-03-22T08:42:31;4.10;99.90
12688;DHT22;6408;59.388;17.798;2024-03-22T08:44:59;4.20;99.90
12688;DHT22;6408;59.388;17.798;2024-03-22T08:47:25;4.20;99.90
12688;DHT22;6408;59.388;17.798;2024-03-22T08:49:52;4.20;99.90
12688;DHT22;6408;59.388;17.798;2024-03-22T08:52:18;4.20;99.90
12688;DHT22;6408;59.388;17.798;2024-03-22T08:54:46;4.20;99.90
12688;DHT22;6408;59.388;17.798;2024-03-22T08:57:12;4.20;99.90
12688;DHT22;6408;59.388;17.798;2024-03-22T08:59:45;4.20;99.90
12688;DHT22;6408;59.388;17.798;2024-03-22T09:02:11;4.30;99.90
12688;DHT22;6408;59.388;17.798;2024-03-22T09:04:39;4.40;99.90
12688;DHT22;6408;59.388;17.798;2024-03-22T09:07:09;4.40;99.90
12688;DHT22;6408;59.388;17.798;2024-03-22T09:09:36;4.40;99.90
12688;DHT22;6408;59.388;17.798;2024-03-22T09:12:04;4.50;99.90
12688;DHT22;6408;59.388;17.798;2024-03-22T09:14:31;4.50;99.90
12688;DHT22;6408;59.388;17.798;2024-03-22T09:17:00;4.60;99.90
12688;DHT22;6408;59.388;17.798;2024-03-22T09:19:26;4.60;99.90
12688;DHT22;6408;59.388;17.798;2024-03-22T09:21:53;4.70;99.90
12688;DHT22;6408;59.388;17.798;2024-03-22T09:24:19;4.70;99.90
12688;DHT22;6408;59.388;17.798;2024-03-22T09:26:46;4.70;99.90
12688;DHT22;6408;59.388;17.798;2024-03-22T09:29:13;4.80;99.90
12688;DHT22;6408;59.388;17.798;2024-03-22T09:31:40;4.80;99.90
12688;DHT22;6408;59.388;17.798;2024-03-22T09:34:08;4.80;99.90
12688;DHT22;6408;59.388;17.798;2024-03-22T09:36:35;4.80;99.90
12688;DHT22;6408;59.388;17.798;2024-03-22T09:39:01;4.90;99.90
12688;DHT22;6408;59.388;17.798;2024-03-22T09:41:37;4.90;99.90
12688;DHT22;6408;59.388;17.798;2024-03-22T09:44:13;4.80;99.90
12688;DHT22;6408;59.388;17.798;2024-03-22T09:46:42;4.90;99.90
12688;DHT22;6408;59.388;17.798;2024-03-22T09:49:31;4.80;99.90
12688;DHT22;6408;59.388;17.798;2024-03-22T09:51:59;4.80;99.90
12688;DHT22;6408;59.388;17.798;2024-03-22T09:54:25;4.90;99.90
12688;DHT22;6408;59.388;17.798;2024-03-22T09:56:53;4.90;99.90
12688;DHT22;6408;59.388;17.798;2024-03-22T09:59:20;5.00;99.90
12688;DHT22;6408;59.388;17.798;2024-03-22T10:01:48;5.00;99.90
12688;DHT22;6408;59.388;17.798;2024-03-22T10:04:15;5.00;99.90
12688;DHT22;6408;59.388;17.798;2024-03-22T10:06:44;5.00;99.90
12688;DHT22;6408;59.388;17.798;2024-03-22T10:09:10;5.00;99.90
12688;DHT22;6408;59.388;17.798;2024-03-22T10:11:40;5.10;99.90
12688;DHT22;6408;59.388;17.798;2024-03-22T10:14:06;5.10;99.90
12688;DHT22;6408;59.388;17.798;2024-03-22T10:16:34;5.10;99.90
12688;DHT22;6408;59.388;17.798;2024-03-22T10:19:01;5.20;99.90
12688;DHT22;6408;59.388;17.798;2024-03-22T10:21:30;5.30;99.90
12688;DHT22;6408;59.388;17.798;2024-03-22T10:23:58;5.30;99.90
12688;DHT22;6408;59.388;17.798;2024-03-22T10:26:26;5.30;99.90
12688;DHT22;6408;59.388;17.798;2024-03-22T10:28:58;5.30;99.90
12688;DHT22;6408;59.388;17.798;2024-03-22T10:31:26;5.40;99.90
12688;DHT22;6408;59.388;17.798;2024-03-22T10:34:10;5.40;99.90
12688;DHT22;6408;59.388;17.798;2024-03-22T10:36:38;5.40;99.90
12688;DHT22;6408;59.388;17.798;2024-03-22T10:39:06;5.40;99.90
12688;DHT22;6408;59.388;17.798;2024-03-22T10:41:38;5.40;99.90
12688;DHT22;6408;59.388;17.798;2024-03-22T10:44:05;5.50;99.90
12688;DHT22;6408;59.388;17.798;2024-03-22T10:46:40;5.50;99.90
12688;DHT22;6408;59.388;17.798;2024-03-22T10:49:15;5.50;99.90
12688;DHT22;6408;59.388;17.798;2024-03-22T10:51:47;5.50;99.90
12688;DHT22;6408;59.388;17.798;2024-03-22T10:54:19;5.60;99.90
12688;DHT22;6408;59.388;17.798;2024-03-22T10:56:49;5.60;99.90
12688;DHT22;6408;59.388;17.798;2024-03-22T10:59:19;5.60;99.90
12688;DHT22;6408;59.388;17.798;2024-03-22T11:01:48;5.60;99.90
12688;DHT22;6408;59.388;17.798;2024-03-22T11:04:20;5.60;99.90
12688;DHT22;6408;59.388;17.798;2024-03-22T11:06:49;5.70;99.90
12688;DHT22;6408;59.388;17.798;2024-03-22T11:09:21;5.80;99.90
12688;DHT22;6408;59.388;17.798;2024-03-22T11:11:52;5.80;99.90
12688;DHT22;6408;59.388;17.798;2024-03-22T11:14:18;5.80;99.90
12688;DHT22;6408;59.388;17.798;2024-03-22T11:16:50;5.90;99.90
12688;DHT22;6408;59.388;17.798;2024-03-22T11:19:17;5.90;99.90
12688;DHT22;6408;59.388;17.798;2024-03-22T11:21:45;5.90;99.90
12688;DHT22;6408;59.388;17.798;2024-03-22T11:24:11;6.00;99.90
12688;DHT22;6408;59.388;17.798;2024-03-22T11:26:57;6.00;99.90
12688;DHT22;6408;59.388;17.798;2024-03-22T11:29:40;5.90;99.90
12688;DHT22;6408;59.388;17.798;2024-03-22T11:32:12;6.00;99.90
12688;DHT22;6408;59.388;17.798;2024-03-22T11:34:39;6.00;99.90
12688;DHT22;6408;59.388;17.798;2024-03-22T11:37:08;6.00;99.90
12688;DHT22;6408;59.388;17.798;2024-03-22T11:39:51;6.00;99.90
12688;DHT22;6408;59.388;17.798;2024-03-22T11:42:20;6.00;99.90
12688;DHT22;6408;59.388;17.798;2024-03-22T11:44:47;6.00;99.90
12688;DHT22;6408;59.388;17.798;2024-03-22T11:47:22;6.00;99.90
12688;DHT22;6408;59.388;17.798;2024-03-22T11:49:50;6.00;99.90
12688;DHT22;6408;59.388;17.798;2024-03-22T11:52:24;6.00;99.90
12688;DHT22;6408;59.388;17.798;2024-03-22T11:55:04;6.00;99.90
12688;DHT22;6408;59.388;17.798;2024-03-22T11:57:33;6.10;99.90
12688;DHT22;6408;59.388;17.798;2024-03-22T12:00:05;6.20;99.90
12688;DHT22;6408;59.388;17.798;2024-03-22T12:02:36;6.20;99.90
12688;DHT22;6408;59.388;17.798;2024-03-22T12:05:03;6.30;99.90
12688;DHT22;6408;59.388;17.798;2024-03-22T12:07:31;6.30;99.90
12688;DHT22;6408;59.388;17.798;2024-03-22T12:09:58;6.30;99.90
12688;DHT22;6408;59.388;17.798;2024-03-22T12:12:26;6.40;99.90
12688;DHT22;6408;59.388;17.798;2024-03-22T12:14:54;6.40;99.90
12688;DHT22;6408;59.388;17.798;2024-03-22T12:17:22;6.40;99.90
12688;DHT22;6408;59.388;17.798;2024-03-22T12:19:51;6.40;99.90
12688;DHT22;6408;59.388;17.798;2024-03-22T12:22:22;6.40;99.90
12688;DHT22;6408;59.388;17.798;2024-03-22T12:24:48;6.50;99.90
12688;DHT22;6408;59.388;17.798;2024-03-22T12:27:15;6.50;99.90
12688;DHT22;6408;59.388;17.798;2024-03-22T12:29:43;6.50;99.90
12688;DHT22;6408;59.388;17.798;2024-03-22T12:32:12;6.60;99.90
12688;DHT22;6408;59.388;17.798;2024-03-22T12:34:38;6.60;99.90
12688;DHT22;6408;59.388;17.798;2024-03-22T12:37:06;6.60;99.90
12688;DHT22;6408;59.388;17.798;2024-03-22T12:39:32;6.60;99.90
12688;DHT22;6408;59.388;17.798;2024-03-22T12:42:04;6.60;99.90
12688;DHT22;6408;59.388;17.798;2024-03-22T12:44:31;6.60;99.90
12688;DHT22;6408;59.388;17.798;2024-03-22T12:46:59;6.60;99.90
12688;DHT22;6408;59.388;17.798;2024-03-22T12:49:27;6.60;99.90
12688;DHT22;6408;59.388;17.798;2024-03-22T12:51:55;6.80;99.90
12688;DHT22;6408;59.388;17.798;2024-03-22T12:54:22;6.80;99.90
12688;DHT22;6408;59.388;17.798;2024-03-22T12:56:51;6.80;99.90
12688;DHT22;6408;59.388;17.798;2024-03-22T12:59:17;6.80;99.90
12688;DHT22;6408;59.388;17.798;2024-03-22T13:01:46;6.80;99.90
12688;DHT22;6408;59.388;17.798;2024-03-22T13:04:12;6.80;99.90
12688;DHT22;6408;59.388;17.798;2024-03-22T13:06:41;6.90;99.90
12688;DHT22;6408;59.388;17.798;2024-03-22T13:09:07;6.90;99.90
12688;DHT22;6408;59.388;17.798;2024-03-22T13:11:35;6.90;99.90
12688;DHT22;6408;59.388;17.798;2024-03-22T13:14:03;6.90;99.90
12688;DHT22;6408;59.388;17.798;2024-03-22T13:16:34;6.90;99.90
12688;DHT22;6408;59.388;17.798;2024-03-22T13:19:00;7.00;99.90
12688;DHT22;6408;59.388;17.798;2024-03-22T13:21:27;7.00;99.90
12688;DHT22;6408;59.388;17.798;2024-03-22T13:23:55;7.00;99.90
12688;DHT22;6408;59.388;17.798;2024-03-22T13:26:23;7.00;99.90
12688;DHT22;6408;59.388;17.798;2024-03-22T13:28:49;7.00;99.90
12688;DHT22;6408;59.388;17.798;2024-03-22T13:31:17;7.00;99.90
12688;DHT22;6408;59.388;17.798;2024-03-22T13:33:43;7.00;99.90
12688;DHT22;6408;59.388;17.798;2024-03-22T13:36:10;6.90;99.90
12688;DHT22;6408;59.388;17.798;2024-03-22T13:38:38;7.00;99.90
12688;DHT22;6408;59.388;17.798;2024-03-22T13:41:11;7.10;99.90
12688;DHT22;6408;59.388;17.798;2024-03-22T13:43:43;7.20;99.90
12688;DHT22;6408;59.388;17.798;2024-03-22T13:46:12;7.30;99.90
12688;DHT22;6408;59.388;17.798;2024-03-22T13:48:47;7.40;99.90
12688;DHT22;6408;59.388;17.798;2024-03-22T13:51:15;7.30;99.90
12688;DHT22;6408;59.388;17.798;2024-03-22T13:53:42;7.30;99.90
12688;DHT22;6408;59.388;17.798;2024-03-22T13:56:13;7.30;99.90
12688;DHT22;6408;59.388;17.798;2024-03-22T13:58:41;7.40;99.90
12688;DHT22;6408;59.388;17.798;2024-03-22T14:01:08;7.40;99.90
12688;DHT22;6408;59.388;17.798;2024-03-22T14:03:36;7.50;99.90
12688;DHT22;6408;59.388;17.798;2024-03-22T14:06:04;7.40;99.90
12688;DHT22;6408;59.388;17.798;2024-03-22T14:08:30;7.40;99.90
12688;DHT22;6408;59.388;17.798;2024-03-22T14:11:02;7.40;99.90
12688;DHT22;6408;59.388;17.798;2024-03-22T14:13:30;7.30;99.90
12688;DHT22;6408;59.388;17.798;2024-03-22T14:15:59;7.30;99.90
12688;DHT22;6408;59.388;17.798;2024-03-22T14:18:25;7.30;99.90
12688;DHT22;6408;59.388;17.798;2024-03-22T14:20:55;7.30;99.90
12688;DHT22;6408;59.388;17.798;2024-03-22T14:23:23;7.60;99.90
12688;DHT22;6408;59.388;17.798;2024-03-22T14:25:55;7.90;99.90
12688;DHT22;6408;59.388;17.798;2024-03-22T14:28:23;8.10;99.90
12688;DHT22;6408;59.388;17.798;2024-03-22T14:34:16;8.30;99.90
12688;DHT22;6408;59.388;17.798;2024-03-22T14:36:48;8.40;99.90
12688;DHT22;6408;59.388;17.798;2024-03-22T14:39:15;8.30;99.90
12688;DHT22;6408;59.388;17.798;2024-03-22T14:41:42;8.30;99.90
12688;DHT22;6408;59.388;17.798;2024-03-22T14:44:30;8.40;99.90
12688;DHT22;6408;59.388;17.798;2024-03-22T14:47:03;8.40;99.90
12688;DHT22;6408;59.388;17.798;2024-03-22T14:49:33;8.40;99.90
12688;DHT22;6408;59.388;17.798;2024-03-22T14:51:59;8.40;99.90
12688;DHT22;6408;59.388;17.798;2024-03-22T14:54:31;8.30;99.90
12688;DHT22;6408;59.388;17.798;2024-03-22T14:57:00;8.10;99.90
12688;DHT22;6408;59.388;17.798;2024-03-22T14:59:29;8.00;99.90
12688;DHT22;6408;59.388;17.798;2024-03-22T15:01:58;7.90;99.90
12688;DHT22;6408;59.388;17.798;2024-03-22T15:04:33;7.90;99.90
12688;DHT22;6408;59.388;17.798;2024-03-22T15:06:59;7.90;99.90
12688;DHT22;6408;59.388;17.798;2024-03-22T15:09:31;7.90;99.90
12688;DHT22;6408;59.388;17.798;2024-03-22T15:11:57;7.80;99.90
12688;DHT22;6408;59.388;17.798;2024-03-22T15:14:25;7.80;99.90
12688;DHT22;6408;59.388;17.798;2024-03-22T15:16:54;7.70;99.90
12688;DHT22;6408;59.388;17.798;2024-03-22T15:19:22;7.70;99.90
12688;DHT22;6408;59.388;17.798;2024-03-22T15:21:53;7.70;99.90
12688;DHT22;6408;59.388;17.798;2024-03-22T15:24:21;7.70;99.90
12688;DHT22;6408;59.388;17.798;2024-03-22T15:26:47;7.60;99.90
12688;DHT22;6408;59.388;17.798;2024-03-22T15:29:18;7.60;99.90
12688;DHT22;6408;59.388;17.798;2024-03-22T15:31:55;7.70;99.90
12688;DHT22;6408;59.388;17.798;2024-03-22T15:34:23;7.70;99.90
12688;DHT22;6408;59.388;17.798;2024-03-22T15:36:52;7.70;99.90
12688;DHT22;6408;59.388;17.798;2024-03-22T15:39:22;7.70;99.90
12688;DHT22;6408;59.388;17.798;2024-03-22T15:41:52;7.60;99.90
12688;DHT22;6408;59.388;17.798;2024-03-22T15:44:20;7.60;99.90
12688;DHT22;6408;59.388;17.798;2024-03-22T15:46:46;7.60;99.90
12688;DHT22;6408;59.388;17.798;2024-03-22T15:49:13;7.50;99.90
12688;DHT22;6408;59.388;17.798;2024-03-22T15:51:40;7.60;99.90
12688;DHT22;6408;59.388;17.798;2024-03-22T15:54:09;7.60;99.90